Time,TemperatureF,DewpointF,PressureIn,WindDirection,WindDirectionDegrees,WindSpeedMPH,WindSpeedGustMPH,Humidity,HourlyPrecipIn,Conditions,Clouds,dailyrainin,SoftwareType,DateUTC
2013-05-01 00:05:00,61.0,28.4,29.72,SSW,207,0.0,8.0,29,0.00,,,-99.99,Weather View 32 v60,2013-05-01 07:05:00,
2013-05-01 00:15:00,60.6,28.9,29.72,SSW,208,2.0,8.0,30,0.00,,,-99.99,Weather View 32 v60,2013-05-01 07:15:00,
2013-05-01 00:20:00,59.1,28.4,29.72,SSW,208,0.0,8.0,31,0.00,,,-99.99,Weather View 32 v60,2013-05-01 07:20:00,
2013-05-01 00:25:00,58.9,27.5,29.72,East,80,0.0,8.0,30,0.00,,,-99.99,Weather View 32 v60,2013-05-01 07:25:00,
2013-05-01 00:30:00,58.7,27.3,29.72,East,81,0.0,8.0,30,0.00,,,-99.99,Weather View 32 v60,2013-05-01 07:30:00,
2013-05-01 00:40:00,58.6,27.2,29.72,East,81,0.0,4.0,30,0.00,,,-99.99,Weather View 32 v60,2013-05-01 07:40:00,
2013-05-01 00:45:00,58.6,27.2,29.72,East,81,0.0,4.0,30,0.00,,,-99.99,Weather View 32 v60,2013-05-01 07:45:00,
2013-05-01 00:55:00,58.5,27.1,29.72,East,81,0.0,4.0,30,0.00,,,-99.99,Weather View 32 v60,2013-05-01 07:55:00,
2013-05-01 01:05:00,58.3,26.9,29.72,North,0,0.0,4.0,30,0.00,,,-99.99,Weather View 32 v60,2013-05-01 08:05:00,
2013-05-01 01:15:00,58.2,26.9,29.72,SW,223,0.0,4.0,30,0.00,,,-99.99,Weather View 32 v60,2013-05-01 08:15:00,
2013-05-01 01:20:00,58.0,26.7,29.72,SSW,206,0.0,4.0,30,0.00,,,-99.99,Weather View 32 v60,2013-05-01 08:20:00,
2013-05-01 01:30:00,57.7,27.2,29.72,South,191,2.0,5.0,31,0.00,,,-99.99,Weather View 32 v60,2013-05-01 08:30:00,
2013-05-01 01:40:00,57.6,25.5,29.72,South,191,0.0,5.0,29,0.00,,,-99.99,Weather View 32 v60,2013-05-01 08:40:00,
2013-05-01 01:50:00,57.5,25.4,29.72,SSW,202,0.0,5.0,29,0.00,,,-99.99,Weather View 32 v60,2013-05-01 08:50:00,
2013-05-01 01:55:00,57.5,25.4,29.72,SSW,202,0.0,5.0,29,0.00,,,-99.99,Weather View 32 v60,2013-05-01 08:55:00,
2013-05-01 02:00:00,57.5,26.2,29.72,SSW,202,0.0,5.0,30,0.00,,,-99.99,Weather View 32 v60,2013-05-01 09:00:00,
2013-05-01 02:10:00,57.3,26.9,29.72,SSW,202,0.0,5.0,31,0.00,,,-99.99,Weather View 32 v60,2013-05-01 09:10:00,
2013-05-01 02:20:00,57.0,25.8,29.72,SSW,202,0.0,5.0,30,0.00,,,-99.99,Weather View 32 v60,2013-05-01 09:20:00,
2013-05-01 02:25:00,56.7,26.3,29.72,South,169,2.0,7.0,31,0.00,,,-99.99,Weather View 32 v60,2013-05-01 09:25:00,
2013-05-01 02:35:00,56.1,24.2,29.72,South,170,0.0,7.0,29,0.00,,,-99.99,Weather View 32 v60,2013-05-01 09:35:00,
2013-05-01 02:40:00,55.5,24.5,29.73,South,176,0.0,7.0,30,0.00,,,-99.99,Weather View 32 v60,2013-05-01 09:40:00,
2013-05-01 02:50:00,54.0,24.0,29.73,South,179,0.0,7.0,31,0.00,,,-99.99,Weather View 32 v60,2013-05-01 09:50:00,
2013-05-01 02:55:00,52.8,22.2,29.73,South,180,2.0,7.0,30,0.00,,,-99.99,Weather View 32 v60,2013-05-01 09:55:00,
2013-05-01 03:01:00,49.5,19.3,29.73,South,180,0.0,7.0,30,0.00,,,-99.99,Weather View 32 v60,2013-05-01 10:01:00,
2013-05-01 03:10:00,57.8,26.5,29.73,South,189,3.0,7.0,30,0.00,,,-99.99,Weather View 32 v60,2013-05-01 10:10:00,
2013-05-01 03:15:00,57.7,28.0,29.73,South,190,3.0,7.0,32,0.00,,,-99.99,Weather View 32 v60,2013-05-01 10:15:00,
2013-05-01 03:25:00,57.6,25.5,29.73,South,185,4.0,5.0,29,0.00,,,-99.99,Weather View 32 v60,2013-05-01 10:25:00,
2013-05-01 03:30:00,57.6,27.9,29.73,South,185,3.0,5.0,32,0.00,,,-99.99,Weather View 32 v60,2013-05-01 10:30:00,
2013-05-01 03:35:00,57.7,28.0,29.73,South,185,0.0,5.0,32,0.00,,,-99.99,Weather View 32 v60,2013-05-01 10:35:00,
2013-05-01 03:45:00,57.5,27.8,29.74,South,185,0.0,5.0,32,0.00,,,-99.99,Weather View 32 v60,2013-05-01 10:45:00,
2013-05-01 03:50:00,57.3,28.4,29.74,South,185,0.0,5.0,33,0.00,,,-99.99,Weather View 32 v60,2013-05-01 10:50:00,
2013-05-01 03:55:00,57.2,26.8,29.74,South,185,0.0,5.0,31,0.00,,,-99.99,Weather View 32 v60,2013-05-01 10:55:00,
2013-05-01 04:00:00,57.2,26.0,29.74,South,185,0.0,5.0,30,0.00,,,-99.99,Weather View 32 v60,2013-05-01 11:00:00,
2013-05-01 04:05:00,57.3,28.4,29.74,South,185,0.0,5.0,33,0.00,,,-99.99,Weather View 32 v60,2013-05-01 11:05:00,
2013-05-01 04:15:00,57.1,28.2,29.74,South,185,0.0,5.0,33,0.00,,,-99.99,Weather View 32 v60,2013-05-01 11:15:00,
2013-05-01 04:20:00,57.0,28.1,29.74,South,185,0.0,5.0,33,0.00,,,-99.99,Weather View 32 v60,2013-05-01 11:20:00,
2013-05-01 04:30:00,56.9,28.0,29.74,South,185,0.0,4.0,33,0.00,,,-99.99,Weather View 32 v60,2013-05-01 11:30:00,
2013-05-01 04:40:00,56.5,26.9,29.74,South,185,0.0,0.0,32,0.00,,,-99.99,Weather View 32 v60,2013-05-01 11:40:00,
2013-05-01 04:50:00,56.3,27.5,29.75,South,185,0.0,0.0,33,0.00,,,-99.99,Weather View 32 v60,2013-05-01 11:50:00,
2013-05-01 04:55:00,56.2,27.4,29.75,South,185,0.0,0.0,33,0.00,,,-99.99,Weather View 32 v60,2013-05-01 11:55:00,
2013-05-01 05:00:00,56.0,27.2,29.75,South,185,0.0,0.0,33,0.00,,,-99.99,Weather View 32 v60,2013-05-01 12:00:00,
2013-05-01 05:10:00,55.7,29.1,29.75,South,185,0.0,0.0,36,0.00,,,-99.99,Weather View 32 v60,2013-05-01 12:10:00,
2013-05-01 05:15:00,55.5,27.5,29.75,South,185,0.0,0.0,34,0.00,,,-99.99,Weather View 32 v60,2013-05-01 12:15:00,
2013-05-01 05:20:00,55.4,26.7,29.75,South,185,0.0,0.0,33,0.00,,,-99.99,Weather View 32 v60,2013-05-01 12:20:00,
2013-05-01 05:30:00,55.0,27.8,29.75,South,185,0.0,0.0,35,0.00,,,-99.99,Weather View 32 v60,2013-05-01 12:30:00,
2013-05-01 05:35:00,54.9,27.7,29.75,South,185,0.0,0.0,35,0.00,,,-99.99,Weather View 32 v60,2013-05-01 12:35:00,
2013-05-01 05:40:00,54.7,27.5,29.76,South,185,0.0,0.0,35,0.00,,,-99.99,Weather View 32 v60,2013-05-01 12:40:00,
2013-05-01 05:50:00,54.5,28.0,29.76,South,185,0.0,0.0,36,0.00,,,-99.99,Weather View 32 v60,2013-05-01 12:50:00,
2013-05-01 05:55:00,54.3,27.2,29.76,South,185,0.0,0.0,35,0.00,,,-99.99,Weather View 32 v60,2013-05-01 12:55:00,
2013-05-01 06:00:00,54.2,27.1,29.76,South,185,0.0,0.0,35,0.00,,,-99.99,Weather View 32 v60,2013-05-01 13:00:00,
2013-05-01 06:05:00,54.1,27.0,29.77,South,185,0.0,0.0,35,0.00,,,-99.99,Weather View 32 v60,2013-05-01 13:05:00,
2013-05-01 06:10:00,53.9,27.5,29.77,South,185,0.0,0.0,36,0.00,,,-99.99,Weather View 32 v60,2013-05-01 13:10:00,
2013-05-01 06:20:00,53.7,28.0,29.78,South,185,0.0,0.0,37,0.00,,,-99.99,Weather View 32 v60,2013-05-01 13:20:00,
2013-05-01 06:25:00,53.6,28.6,29.78,South,185,0.0,0.0,38,0.00,,,-99.99,Weather View 32 v60,2013-05-01 13:25:00,
2013-05-01 06:30:00,53.6,27.9,29.78,South,185,0.0,0.0,37,0.00,,,-99.99,Weather View 32 v60,2013-05-01 13:30:00,
2013-05-01 06:35:00,53.6,29.8,29.79,South,185,0.0,0.0,40,0.00,,,-99.99,Weather View 32 v60,2013-05-01 13:35:00,
2013-05-01 06:40:00,53.7,28.6,29.79,South,185,0.0,0.0,38,0.00,,,-99.99,Weather View 32 v60,2013-05-01 13:40:00,
2013-05-01 06:50:00,53.8,28.7,29.79,South,185,0.0,0.0,38,0.00,,,-99.99,Weather View 32 v60,2013-05-01 13:50:00,
2013-05-01 06:55:00,53.8,30.0,29.79,South,185,0.0,0.0,40,0.00,,,-99.99,Weather View 32 v60,2013-05-01 13:55:00,
2013-05-01 07:00:00,53.8,30.6,29.79,South,185,0.0,0.0,41,0.00,,,-99.99,Weather View 32 v60,2013-05-01 14:00:00,
2013-05-01 07:05:00,53.8,30.6,29.80,South,185,0.0,0.0,41,0.00,,,-99.99,Weather View 32 v60,2013-05-01 14:05:00,
2013-05-01 07:15:00,53.8,31.8,29.80,South,185,0.0,0.0,43,0.00,,,-99.99,Weather View 32 v60,2013-05-01 14:15:00,
2013-05-01 07:20:00,53.8,31.8,29.81,South,185,0.0,0.0,43,0.00,,,-99.99,Weather View 32 v60,2013-05-01 14:20:00,
2013-05-01 07:30:00,53.8,31.2,29.81,South,185,0.0,0.0,42,0.00,,,-99.99,Weather View 32 v60,2013-05-01 14:30:00,
2013-05-01 07:40:00,54.0,31.4,29.81,South,185,0.0,0.0,42,0.00,,,-99.99,Weather View 32 v60,2013-05-01 14:40:00,
2013-05-01 07:45:00,54.1,32.1,29.82,South,185,0.0,0.0,43,0.00,,,-99.99,Weather View 32 v60,2013-05-01 14:45:00,
2013-05-01 07:50:00,54.2,33.8,29.82,South,185,0.0,0.0,46,0.00,,,-99.99,Weather View 32 v60,2013-05-01 14:50:00,
2013-05-01 08:00:00,54.4,33.5,29.82,South,185,0.0,0.0,45,0.00,,,-99.99,Weather View 32 v60,2013-05-01 15:00:00,
2013-05-01 08:05:00,54.5,33.6,29.82,South,185,0.0,0.0,45,0.00,,,-99.99,Weather View 32 v60,2013-05-01 15:05:00,
2013-05-01 08:10:00,54.6,33.1,29.82,South,185,0.0,0.0,44,0.00,,,-99.99,Weather View 32 v60,2013-05-01 15:10:00,
2013-05-01 08:20:00,55.0,31.7,29.83,South,185,0.0,0.0,41,0.00,,,-99.99,Weather View 32 v60,2013-05-01 15:20:00,
2013-05-01 08:25:00,55.2,31.9,29.82,South,185,0.0,0.0,41,0.00,,,-99.99,Weather View 32 v60,2013-05-01 15:25:00,
2013-05-01 08:30:00,55.5,31.5,29.83,South,185,0.0,0.0,40,0.00,,,-99.99,Weather View 32 v60,2013-05-01 15:30:00,
2013-05-01 08:40:00,56.1,30.8,29.83,South,185,0.0,0.0,38,0.00,,,-99.99,Weather View 32 v60,2013-05-01 15:40:00,
2013-05-01 08:45:00,56.4,30.4,29.83,South,185,0.0,0.0,37,0.00,,,-99.99,Weather View 32 v60,2013-05-01 15:45:00,
2013-05-01 08:50:00,56.7,30.0,29.83,South,185,0.0,0.0,36,0.00,,,-99.99,Weather View 32 v60,2013-05-01 15:50:00,
2013-05-01 09:00:00,57.5,30.7,29.84,South,185,0.0,0.0,36,0.00,,,-99.99,Weather View 32 v60,2013-05-01 16:00:00,
2013-05-01 09:05:00,58.0,31.1,29.84,South,185,0.0,0.0,36,0.00,,,-99.99,Weather View 32 v60,2013-05-01 16:05:00,
2013-05-01 09:15:00,59.1,30.0,29.84,South,185,0.0,0.0,33,0.00,,,-99.99,Weather View 32 v60,2013-05-01 16:15:00,
2013-05-01 09:20:00,59.7,30.5,29.84,NNW,330,0.0,0.0,33,0.00,,,-99.99,Weather View 32 v60,2013-05-01 16:20:00,
2013-05-01 09:25:00,60.3,31.0,29.85,NNW,330,0.0,0.0,33,0.00,,,-99.99,Weather View 32 v60,2013-05-01 16:25:00,
2013-05-01 09:30:00,60.9,32.3,29.84,NNW,330,0.0,0.0,34,0.00,,,-99.99,Weather View 32 v60,2013-05-01 16:30:00,
2013-05-01 09:40:00,62.3,28.7,29.85,WSW,243,0.0,0.0,28,0.00,,,-99.99,Weather View 32 v60,2013-05-01 16:40:00,
2013-05-01 09:45:00,63.3,29.6,29.85,WNW,300,0.0,0.0,28,0.00,,,-99.99,Weather View 32 v60,2013-05-01 16:45:00,
2013-05-01 09:50:00,64.1,29.4,29.85,WNW,300,0.0,0.0,27,0.00,,,-99.99,Weather View 32 v60,2013-05-01 16:50:00,
2013-05-01 09:55:00,64.8,32.6,29.85,WNW,289,0.0,0.0,30,0.00,,,-99.99,Weather View 32 v60,2013-05-01 16:55:00,
2013-05-01 10:00:00,65.5,31.5,29.85,WNW,289,0.0,0.0,28,0.00,,,-99.99,Weather View 32 v60,2013-05-01 17:00:00,
2013-05-01 10:05:00,66.3,31.2,29.85,North,353,0.0,0.0,27,0.00,,,-99.99,Weather View 32 v60,2013-05-01 17:05:00,
2013-05-01 10:10:00,67.0,31.8,29.86,North,353,0.0,0.0,27,0.00,,,-99.99,Weather View 32 v60,2013-05-01 17:10:00,
2013-05-01 10:15:00,67.7,31.5,29.86,North,353,0.0,0.0,26,0.00,,,-99.99,Weather View 32 v60,2013-05-01 17:15:00,
2013-05-01 10:20:00,68.3,33.9,29.85,North,353,0.0,0.0,28,0.00,,,-99.99,Weather View 32 v60,2013-05-01 17:20:00,
2013-05-01 10:25:00,68.9,33.5,29.85,NNW,341,0.0,0.0,27,0.00,,,-99.99,Weather View 32 v60,2013-05-01 17:25:00,
2013-05-01 10:30:00,69.9,31.4,29.85,NNW,341,0.0,0.0,24,0.00,,,-99.99,Weather View 32 v60,2013-05-01 17:30:00,
2013-05-01 10:40:00,70.8,32.1,29.86,WNW,298,0.0,0.0,24,0.00,,,-99.99,Weather View 32 v60,2013-05-01 17:40:00,
2013-05-01 10:45:00,71.3,31.5,29.86,West,277,0.0,0.0,23,0.00,,,-99.99,Weather View 32 v60,2013-05-01 17:45:00,
2013-05-01 10:50:00,71.9,33.1,29.86,NNW,340,0.0,0.0,24,0.00,,,-99.99,Weather View 32 v60,2013-05-01 17:50:00,
2013-05-01 10:55:00,72.5,30.2,29.86,North,5,4.0,5.0,21,0.00,,,-99.99,Weather View 32 v60,2013-05-01 17:55:00,
2013-05-01 11:05:00,73.3,30.9,29.86,SW,234,3.0,5.0,21,0.00,,,-99.99,Weather View 32 v60,2013-05-01 18:05:00,
2013-05-01 11:15:00,73.3,29.7,29.86,NW,320,3.0,8.0,20,0.00,,,-99.99,Weather View 32 v60,2013-05-01 18:15:00,
2013-05-01 11:20:00,72.0,28.6,29.86,North,0,4.0,8.0,20,0.00,,,-99.99,Weather View 32 v60,2013-05-01 18:20:00,
2013-05-01 11:25:00,72.7,30.4,29.86,NNW,333,4.0,9.0,21,0.00,,,-99.99,Weather View 32 v60,2013-05-01 18:25:00,
2013-05-01 11:35:00,75.3,30.1,29.86,NW,318,5.0,9.0,19,0.00,,,-99.99,Weather View 32 v60,2013-05-01 18:35:00,
2013-05-01 11:40:00,76.0,31.9,29.86,NE,37,1.0,9.0,20,0.00,,,-99.99,Weather View 32 v60,2013-05-01 18:40:00,
2013-05-01 11:50:00,76.5,31.1,29.86,North,354,6.0,9.0,19,0.00,,,-99.99,Weather View 32 v60,2013-05-01 18:50:00,
2013-05-01 12:00:00,76.2,30.8,29.86,NNW,328,5.0,11.0,19,0.00,,,-99.99,Weather View 32 v60,2013-05-01 19:00:00,
2013-05-01 12:06:00,75.5,31.5,29.86,NNW,333,3.0,11.0,20,0.00,,,-99.99,Weather View 32 v60,2013-05-01 19:06:00,
2013-05-01 12:15:00,75.9,31.8,29.86,ESE,116,4.0,14.0,20,0.00,,,-99.99,Weather View 32 v60,2013-05-01 19:15:00,
2013-05-01 12:20:00,75.7,32.9,29.86,NNE,19,1.0,14.0,21,0.00,,,-99.99,Weather View 32 v60,2013-05-01 19:20:00,
2013-05-01 12:25:00,75.7,31.7,29.87,West,274,2.0,14.0,20,0.00,,,-99.99,Weather View 32 v60,2013-05-01 19:25:00,
2013-05-01 12:30:00,75.7,31.7,29.86,North,0,5.0,14.0,20,0.00,,,-99.99,Weather View 32 v60,2013-05-01 19:30:00,
2013-05-01 12:40:00,75.8,30.5,29.86,North,0,4.0,14.0,19,0.00,,,-99.99,Weather View 32 v60,2013-05-01 19:40:00,
2013-05-01 12:45:00,75.8,30.5,29.86,WNW,292,1.0,14.0,19,0.00,,,-99.99,Weather View 32 v60,2013-05-01 19:45:00,
2013-05-01 12:50:00,75.9,33.1,29.86,North,0,4.0,14.0,21,0.00,,,-99.99,Weather View 32 v60,2013-05-01 19:50:00,
2013-05-01 12:55:00,76.1,32.0,29.86,North,350,4.0,14.0,20,0.00,,,-99.99,Weather View 32 v60,2013-05-01 19:55:00,
2013-05-01 13:00:00,76.4,31.0,29.86,NNW,329,8.0,14.0,19,0.00,,,-99.99,Weather View 32 v60,2013-05-01 20:00:00,
2013-05-01 13:06:00,78.9,33.0,29.86,NNW,334,4.0,14.0,19,0.00,,,-99.99,Weather View 32 v60,2013-05-01 20:06:00,
2013-05-01 13:15:00,76.2,30.8,29.86,NW,323,3.0,14.0,19,0.00,,,-99.99,Weather View 32 v60,2013-05-01 20:15:00,
2013-05-01 13:20:00,77.1,32.8,29.87,NNW,347,7.0,12.0,20,0.00,,,-99.99,Weather View 32 v60,2013-05-01 20:20:00,
2013-05-01 13:30:00,77.6,30.6,29.86,NW,320,5.0,12.0,18,0.00,,,-99.99,Weather View 32 v60,2013-05-01 20:30:00,
2013-05-01 13:35:00,76.7,29.9,29.87,NW,318,5.0,12.0,18,0.00,,,-99.99,Weather View 32 v60,2013-05-01 20:35:00,
2013-05-01 13:40:00,77.9,30.9,29.86,NW,310,6.0,12.0,18,0.00,,,-99.99,Weather View 32 v60,2013-05-01 20:40:00,
2013-05-01 13:50:00,79.6,33.6,29.86,West,277,2.0,12.0,19,0.00,,,-99.99,Weather View 32 v60,2013-05-01 20:50:00,
2013-05-01 13:55:00,80.0,33.9,29.86,West,280,1.0,12.0,19,0.00,,,-99.99,Weather View 32 v60,2013-05-01 20:55:00,
2013-05-01 14:00:00,78.3,32.5,29.86,SSE,157,2.0,12.0,19,0.00,,,-99.99,Weather View 32 v60,2013-05-01 21:00:00,
2013-05-01 14:05:00,75.1,29.9,29.86,NW,310,4.0,12.0,19,0.00,,,-99.99,Weather View 32 v60,2013-05-01 21:05:00,
2013-05-01 14:15:00,77.4,29.1,29.86,WSW,238,3.0,12.0,17,0.00,,,-99.99,Weather View 32 v60,2013-05-01 21:15:00,
2013-05-01 14:20:00,78.1,31.0,29.86,West,275,2.0,12.0,18,0.00,,,-99.99,Weather View 32 v60,2013-05-01 21:20:00,
2013-05-01 14:30:00,71.0,25.3,29.86,WSW,238,3.0,12.0,18,0.00,,,-99.99,Weather View 32 v60,2013-05-01 21:30:00,
2013-05-01 14:40:00,83.7,34.1,29.86,WSW,257,1.0,13.0,17,0.00,,,-99.99,Weather View 32 v60,2013-05-01 21:40:00,
2013-05-01 14:45:00,83.6,34.1,29.86,WSW,245,2.0,13.0,17,0.00,,,-99.99,Weather View 32 v60,2013-05-01 21:45:00,
2013-05-01 14:50:00,83.8,34.2,29.86,West,265,3.0,13.0,17,0.00,,,-99.99,Weather View 32 v60,2013-05-01 21:50:00,
2013-05-01 14:55:00,84.1,34.5,29.86,WSW,244,4.0,13.0,17,0.00,,,-99.99,Weather View 32 v60,2013-05-01 21:55:00,
2013-05-01 15:00:00,84.2,34.5,29.86,WNW,282,3.0,13.0,17,0.00,,,-99.99,Weather View 32 v60,2013-05-01 22:00:00,
2013-05-01 15:07:00,83.7,34.1,29.86,West,266,3.0,13.0,17,0.00,,,-99.99,Weather View 32 v60,2013-05-01 22:07:00,
2013-05-01 15:15:00,74.6,26.8,29.86,SW,227,2.0,13.0,17,0.00,,,-99.99,Weather View 32 v60,2013-05-01 22:15:00,
2013-05-01 15:20:00,83.0,35.0,29.86,WSW,258,4.0,13.0,18,0.00,,,-99.99,Weather View 32 v60,2013-05-01 22:20:00,
2013-05-01 15:30:00,82.2,32.9,29.86,West,260,2.0,13.0,17,0.00,,,-99.99,Weather View 32 v60,2013-05-01 22:30:00,
2013-05-01 15:35:00,82.5,36.0,29.85,NNW,338,5.0,13.0,19,0.00,,,-99.99,Weather View 32 v60,2013-05-01 22:35:00,
2013-05-01 15:40:00,81.6,32.4,29.86,NNW,344,3.0,11.0,17,0.00,,,-99.99,Weather View 32 v60,2013-05-01 22:40:00,
2013-05-01 15:45:00,81.5,32.4,29.86,NNW,339,2.0,11.0,17,0.00,,,-99.99,Weather View 32 v60,2013-05-01 22:45:00,
2013-05-01 15:50:00,81.2,33.6,29.85,NNW,338,3.0,11.0,18,0.00,,,-99.99,Weather View 32 v60,2013-05-01 22:50:00,
2013-05-01 16:00:00,81.2,32.1,29.85,NW,315,3.0,11.0,17,0.00,,,-99.99,Weather View 32 v60,2013-05-01 23:00:00,
2013-05-01 16:08:00,81.1,32.0,29.86,West,271,0.0,11.0,17,0.00,,,-99.99,Weather View 32 v60,2013-05-01 23:08:00,
2013-05-01 16:15:00,81.7,34.0,29.85,NW,314,3.0,12.0,18,0.00,,,-99.99,Weather View 32 v60,2013-05-01 23:15:00,
2013-05-01 16:20:00,81.8,32.6,29.85,NW,313,0.0,12.0,17,0.00,,,-99.99,Weather View 32 v60,2013-05-01 23:20:00,
2013-05-01 16:25:00,87.4,37.1,29.86,NNW,331,6.0,12.0,17,0.00,,,-99.99,Weather View 32 v60,2013-05-01 23:25:00,
2013-05-01 16:30:00,87.9,37.5,29.85,NNW,339,5.0,12.0,17,0.00,,,-99.99,Weather View 32 v60,2013-05-01 23:30:00,
2013-05-01 16:35:00,88.3,40.7,29.85,NNW,334,4.0,12.0,19,0.00,,,-99.99,Weather View 32 v60,2013-05-01 23:35:00,
2013-05-01 16:40:00,75.6,27.6,29.85,NNW,327,5.0,12.0,17,0.00,,,-99.99,Weather View 32 v60,2013-05-01 23:40:00,
2013-05-01 16:50:00,79.1,30.4,29.85,NNW,345,2.0,12.0,17,0.00,,,-99.99,Weather View 32 v60,2013-05-01 23:50:00,
2013-05-01 16:55:00,85.7,34.2,29.85,NNW,345,2.0,12.0,16,0.00,,,-99.99,Weather View 32 v60,2013-05-01 23:55:00,
2013-05-01 17:00:00,88.4,36.4,29.85,NNW,345,2.0,12.0,16,0.00,,,-99.99,Weather View 32 v60,2013-05-02 00:00:00,
2013-05-01 17:05:00,87.2,35.4,29.85,NNW,345,3.0,12.0,16,0.00,,,-99.99,Weather View 32 v60,2013-05-02 00:05:00,
2013-05-01 17:10:00,87.0,36.8,29.85,NNW,346,2.0,12.0,17,0.00,,,-99.99,Weather View 32 v60,2013-05-02 00:10:00,
2013-05-01 17:20:00,86.0,36.0,29.85,NNW,333,1.0,8.0,17,0.00,,,-99.99,Weather View 32 v60,2013-05-02 00:20:00,
2013-05-01 17:30:00,84.5,34.8,29.85,NNW,348,5.0,9.0,17,0.00,,,-99.99,Weather View 32 v60,2013-05-02 00:30:00,
2013-05-01 17:35:00,85.7,35.7,29.85,NNW,335,3.0,9.0,17,0.00,,,-99.99,Weather View 32 v60,2013-05-02 00:35:00,
2013-05-01 17:40:00,84.5,37.6,29.85,NNW,339,2.0,9.0,19,0.00,,,-99.99,Weather View 32 v60,2013-05-02 00:40:00,
2013-05-01 17:50:00,74.6,30.8,29.85,NNW,347,6.0,9.0,20,0.00,,,-99.99,Weather View 32 v60,2013-05-02 00:50:00,
2013-05-01 17:55:00,79.7,36.2,29.86,North,353,3.0,9.0,21,0.00,,,-99.99,Weather View 32 v60,2013-05-02 00:55:00,
2013-05-01 18:00:00,72.1,31.1,29.86,North,353,0.0,9.0,22,0.00,,,-99.99,Weather View 32 v60,2013-05-02 01:00:00,
2013-05-01 18:05:00,74.0,33.8,29.86,North,353,2.0,9.0,23,0.00,,,-99.99,Weather View 32 v60,2013-05-02 01:05:00,
2013-05-01 18:15:00,72.3,35.4,29.86,NW,310,0.0,9.0,26,0.00,,,-99.99,Weather View 32 v60,2013-05-02 01:15:00,
2013-05-01 18:20:00,76.8,38.2,29.86,NW,310,0.0,9.0,25,0.00,,,-99.99,Weather View 32 v60,2013-05-02 01:20:00,
2013-05-01 18:30:00,77.1,40.5,29.86,NW,310,0.0,9.0,27,0.00,,,-99.99,Weather View 32 v60,2013-05-02 01:30:00,
2013-05-01 18:40:00,66.2,32.9,29.86,NW,310,0.0,6.0,29,0.00,,,-99.99,Weather View 32 v60,2013-05-02 01:40:00,
2013-05-01 18:45:00,76.5,42.7,29.86,NW,310,0.0,6.0,30,0.00,,,-99.99,Weather View 32 v60,2013-05-02 01:45:00,
2013-05-01 18:50:00,64.2,32.9,29.86,NW,310,0.0,6.0,31,0.00,,,-99.99,Weather View 32 v60,2013-05-02 01:50:00,
2013-05-01 18:55:00,74.1,43.1,29.87,NW,310,0.0,6.0,33,0.00,,,-99.99,Weather View 32 v60,2013-05-02 01:55:00,
2013-05-01 19:00:00,75.6,44.4,29.87,NW,310,0.0,3.0,33,0.00,,,-99.99,Weather View 32 v60,2013-05-02 02:00:00,
2013-05-01 19:10:00,74.7,44.4,29.87,NW,310,0.0,0.0,34,0.00,,,-99.99,Weather View 32 v60,2013-05-02 02:10:00,
2013-05-01 19:15:00,74.2,44.7,29.87,NW,310,0.0,0.0,35,0.00,,,-99.99,Weather View 32 v60,2013-05-02 02:15:00,
2013-05-01 19:20:00,73.9,44.4,29.87,NW,310,0.0,0.0,35,0.00,,,-99.99,Weather View 32 v60,2013-05-02 02:20:00,
2013-05-01 19:25:00,73.4,44.7,29.88,NW,310,0.0,0.0,36,0.00,,,-99.99,Weather View 32 v60,2013-05-02 02:25:00,
2013-05-01 19:30:00,73.0,45.1,29.88,NW,310,0.0,0.0,37,0.00,,,-99.99,Weather View 32 v60,2013-05-02 02:30:00,
2013-05-01 19:35:00,72.3,44.5,29.88,NW,310,0.0,0.0,37,0.00,,,-99.99,Weather View 32 v60,2013-05-02 02:35:00,
2013-05-01 19:40:00,71.9,44.8,29.88,NW,310,0.0,0.0,38,0.00,,,-99.99,Weather View 32 v60,2013-05-02 02:40:00,
2013-05-01 19:45:00,71.5,44.5,29.88,NW,310,0.0,0.0,38,0.00,,,-99.99,Weather View 32 v60,2013-05-02 02:45:00,
2013-05-01 19:50:00,71.0,44.0,29.88,NW,310,0.0,0.0,38,0.00,,,-99.99,Weather View 32 v60,2013-05-02 02:50:00,
2013-05-01 19:55:00,70.5,45.0,29.89,NW,310,0.0,0.0,40,0.00,,,-99.99,Weather View 32 v60,2013-05-02 02:55:00,
2013-05-01 20:00:00,70.0,44.5,29.89,NW,310,0.0,0.0,40,0.00,,,-99.99,Weather View 32 v60,2013-05-02 03:00:00,
2013-05-01 20:05:00,69.5,44.1,29.89,NW,310,0.0,0.0,40,0.00,,,-99.99,Weather View 32 v60,2013-05-02 03:05:00,
2013-05-01 20:10:00,69.1,44.3,29.89,NW,310,0.0,0.0,41,0.00,,,-99.99,Weather View 32 v60,2013-05-02 03:10:00,
2013-05-01 20:20:00,68.2,44.2,29.90,NW,310,0.0,0.0,42,0.00,,,-99.99,Weather View 32 v60,2013-05-02 03:20:00,
2013-05-01 20:25:00,67.8,43.8,29.90,NW,310,0.0,0.0,42,0.00,,,-99.99,Weather View 32 v60,2013-05-02 03:25:00,
2013-05-01 20:30:00,67.4,44.1,29.90,NW,310,0.0,0.0,43,0.00,,,-99.99,Weather View 32 v60,2013-05-02 03:30:00,
2013-05-01 20:35:00,66.9,43.0,29.90,NW,310,0.0,0.0,42,0.00,,,-99.99,Weather View 32 v60,2013-05-02 03:35:00,
2013-05-01 20:40:00,66.5,42.6,29.90,NW,310,0.0,0.0,42,0.00,,,-99.99,Weather View 32 v60,2013-05-02 03:40:00,
2013-05-01 20:50:00,65.8,42.6,29.91,NW,310,0.0,0.0,43,0.00,,,-99.99,Weather View 32 v60,2013-05-02 03:50:00,
2013-05-01 20:55:00,65.4,42.3,29.91,NW,310,0.0,0.0,43,0.00,,,-99.99,Weather View 32 v60,2013-05-02 03:55:00,
2013-05-01 21:00:00,65.2,42.7,29.91,NW,310,0.0,0.0,44,0.00,,,-99.99,Weather View 32 v60,2013-05-02 04:00:00,
2013-05-01 21:05:00,64.9,41.8,29.91,NW,310,0.0,0.0,43,0.00,,,-99.99,Weather View 32 v60,2013-05-02 04:05:00,
2013-05-01 21:10:00,64.6,42.1,29.91,NW,310,0.0,0.0,44,0.00,,,-99.99,Weather View 32 v60,2013-05-02 04:10:00,
2013-05-01 21:15:00,64.2,41.8,29.91,NW,310,0.0,0.0,44,0.00,,,-99.99,Weather View 32 v60,2013-05-02 04:15:00,
2013-05-01 21:20:00,64.0,41.6,29.92,NW,310,0.0,0.0,44,0.00,,,-99.99,Weather View 32 v60,2013-05-02 04:20:00,
2013-05-01 21:25:00,63.7,41.3,29.92,NW,310,0.0,0.0,44,0.00,,,-99.99,Weather View 32 v60,2013-05-02 04:25:00,
2013-05-01 21:30:00,63.4,41.6,29.92,NW,310,0.0,0.0,45,0.00,,,-99.99,Weather View 32 v60,2013-05-02 04:30:00,
2013-05-01 21:35:00,62.5,40.8,29.92,NW,310,0.0,0.0,45,0.00,,,-99.99,Weather View 32 v60,2013-05-02 04:35:00,
2013-05-01 21:40:00,59.4,38.0,29.92,NW,310,0.0,0.0,45,0.00,,,-99.99,Weather View 32 v60,2013-05-02 04:40:00,
2013-05-01 21:45:00,55.7,34.6,29.92,NW,310,0.0,0.0,45,0.00,,,-99.99,Weather View 32 v60,2013-05-02 04:45:00,
2013-05-01 21:50:00,47.7,27.4,29.92,NW,310,0.0,0.0,45,0.00,,,-99.99,Weather View 32 v60,2013-05-02 04:50:00,
2013-05-01 21:55:00,56.7,35.6,29.92,NW,310,0.0,0.0,45,0.00,,,-99.99,Weather View 32 v60,2013-05-02 04:55:00,
2013-05-01 22:00:00,56.6,35.5,29.93,NW,310,0.0,0.0,45,0.00,,,-99.99,Weather View 32 v60,2013-05-02 05:00:00,
2013-05-01 22:10:00,61.2,39.6,29.92,NW,310,0.0,0.0,45,0.00,,,-99.99,Weather View 32 v60,2013-05-02 05:10:00,
2013-05-01 22:15:00,60.9,39.4,29.93,NW,310,0.0,0.0,45,0.00,,,-99.99,Weather View 32 v60,2013-05-02 05:15:00,
2013-05-01 22:20:00,60.2,39.3,29.93,NW,310,0.0,0.0,46,0.00,,,-99.99,Weather View 32 v60,2013-05-02 05:20:00,
2013-05-01 22:25:00,58.8,37.5,29.93,NW,310,0.0,0.0,45,0.00,,,-99.99,Weather View 32 v60,2013-05-02 05:25:00,
2013-05-01 22:30:00,51.6,30.4,29.93,NW,310,0.0,0.0,44,0.00,,,-99.99,Weather View 32 v60,2013-05-02 05:30:00,
2013-05-01 22:35:00,51.8,31.1,29.93,NW,310,0.0,0.0,45,0.00,,,-99.99,Weather View 32 v60,2013-05-02 05:35:00,
2013-05-01 22:40:00,52.9,32.1,29.93,NW,310,0.0,0.0,45,0.00,,,-99.99,Weather View 32 v60,2013-05-02 05:40:00,
2013-05-01 22:45:00,51.2,30.0,29.93,NW,310,0.0,0.0,44,0.00,,,-99.99,Weather View 32 v60,2013-05-02 05:45:00,
2013-05-01 22:50:00,49.7,28.6,29.93,NW,310,0.0,0.0,44,0.00,,,-99.99,Weather View 32 v60,2013-05-02 05:50:00,
2013-05-01 23:00:00,53.9,32.4,29.93,NW,310,0.0,0.0,44,0.00,,,-99.99,Weather View 32 v60,2013-05-02 06:00:00,
2013-05-01 23:05:00,57.7,36.5,29.93,NW,310,0.0,0.0,45,0.00,,,-99.99,Weather View 32 v60,2013-05-02 06:05:00,
2013-05-01 23:10:00,58.2,36.9,29.93,NW,310,0.0,0.0,45,0.00,,,-99.99,Weather View 32 v60,2013-05-02 06:10:00,
2013-05-01 23:15:00,58.3,37.0,29.93,NW,310,0.0,0.0,45,0.00,,,-99.99,Weather View 32 v60,2013-05-02 06:15:00,
2013-05-01 23:25:00,58.1,36.8,29.93,NW,310,0.0,0.0,45,0.00,,,-99.99,Weather View 32 v60,2013-05-02 06:25:00,
2013-05-01 23:30:00,58.0,36.7,29.93,NW,310,0.0,0.0,45,0.00,,,-99.99,Weather View 32 v60,2013-05-02 06:30:00,
2013-05-01 23:35:00,57.8,36.0,29.93,NW,310,0.0,0.0,44,0.00,,,-99.99,Weather View 32 v60,2013-05-02 06:35:00,
2013-05-01 23:40:00,57.6,35.8,29.93,NW,310,0.0,0.0,44,0.00,,,-99.99,Weather View 32 v60,2013-05-02 06:40:00,
2013-05-01 23:50:00,57.3,35.5,29.93,NW,310,0.0,0.0,44,0.00,,,-99.99,Weather View 32 v60,2013-05-02 06:50:00,